Time;durP1;ratioP1;P1;durP2;ratioP2;P2;SDS_P1;SDS_P2;PMS_P1;PMS_P2;Temp;Humidity;BMP_temperature;BMP_pressure;BME280_temperature;BME280_humidity;BME280_pressure;Samples;Min_cycle;Max_cycle;Signal;HPM_P1;HPM_P2
2023/03/31 00:05:37;;;;;;;12.20;3.80;;;;;;;;;;5433580;23;20055;-85
2023/03/31 01:03:06;;;;;;;8.30;3.47;;;;;;;;;;5451385;23;20072;-85
2023/03/31 06:18:31;;;;;;;14.45;4.82;;;;;;;;;;5916987;23;20023;-80
2023/03/31 06:46:39;;;;;;;19.65;5.85;;;;;;;;;;5890905;23;20765;-80
2023/03/31 07:20:34;;;;;;;22.98;7.10;;;;;;;;;;5838173;23;20043;-92
2023/03/31 07:29:27;;;;;;;18.40;6.03;;;;;;;;;;5791828;23;20092;-86
2023/03/31 07:31:56;;;;;;;23.33;6.57;;;;;;;;;;5232447;23;20064;-86
2023/03/31 07:34:40;;;;;;;25.77;7.03;;;;;;;;;;4939943;29;20031;-87
2023/03/31 07:39:46;;;;;;;22.58;7.68;;;;;;;;;;5426227;23;20164;-90
2023/03/31 07:42:18;;;;;;;15.45;5.70;;;;;;;;;;4935846;29;20092;-89
2023/03/31 07:44:47;;;;;;;16.00;4.93;;;;;;;;;;4917879;29;20012;-90
2023/03/31 07:47:32;;;;;;;18.25;6.75;;;;;;;;;;4940249;29;20044;-90
2023/03/31 07:50:19;;;;;;;13.70;5.05;;;;;;;;;;5429763;23;20060;-85
2023/03/31 07:52:54;;;;;;;18.90;6.47;;;;;;;;;;4935631;29;20020;-85
2023/03/31 07:55:57;;;;;;;;;;;;;;;;;;;;;
2023/03/31 07:58:59;;;;;;;22.80;5.75;;;;;;;;;;4932998;29;20016;-86
2023/03/31 08:04:02;;;;;;;12.25;5.10;;;;;;;;;;5603162;23;20059;-84
2023/03/31 08:32:29;;;;;;;6.35;3.88;;;;;;;;;;5727213;23;20129;-85
2023/03/31 08:40:42;;;;;;;6.60;4.47;;;;;;;;;;5121164;23;20048;-89
2023/03/31 08:46:00;;;;;;;6.18;4.70;;;;;;;;;;5154289;23;20060;-85
2023/03/31 09:44:41;;;;;;;10.98;6.10;;;;;;;;;;5344875;23;20040;-85
2023/03/31 09:52:34;;;;;;;18.40;8.98;;;;;;;;;;5484987;23;20187;-85
2023/03/31 09:55:51;;;;;;;;;;;;;;;;;;;;;
2023/03/31 10:03:35;;;;;;;11.40;4.65;;;;;;;;;;5461755;23;20051;-84
2023/03/31 10:11:14;;;;;;;7.25;4.10;;;;;;;;;;5597157;23;20074;-78
2023/03/31 10:13:40;;;;;;;8.27;4.47;;;;;;;;;;4955786;29;20018;-78
2023/03/31 10:16:11;;;;;;;8.48;4.57;;;;;;;;;;4938903;29;20031;-79
2023/03/31 10:18:39;;;;;;;7.28;4.38;;;;;;;;;;5031837;23;20052;-79
2023/03/31 10:21:06;;;;;;;10.35;5.50;;;;;;;;;;4930294;29;20047;-81
2023/03/31 10:23:35;;;;;;;7.82;4.43;;;;;;;;;;4930816;29;20032;-81
2023/03/31 10:26:02;;;;;;;8.75;5.07;;;;;;;;;;4930318;29;20087;-81
2023/03/31 10:28:31;;;;;;;11.45;5.20;;;;;;;;;;4933688;29;20028;-81
2023/03/31 10:31:02;;;;;;;7.82;4.90;;;;;;;;;;4917859;29;20248;-86
2023/03/31 10:36:09;;;;;;;7.38;4.32;;;;;;;;;;5090975;23;20070;-86
2023/03/31 10:38:39;;;;;;;8.63;4.50;;;;;;;;;;4930128;29;20028;-81
2023/03/31 10:41:06;;;;;;;8.82;4.47;;;;;;;;;;4929332;29;20054;-83
2023/03/31 10:43:42;;;;;;;8.60;4.18;;;;;;;;;;4943735;29;20028;-79
2023/03/31 10:46:09;;;;;;;10.93;3.97;;;;;;;;;;4907425;29;20043;-81
2023/03/31 10:48:37;;;;;;;10.52;3.83;;;;;;;;;;4939493;29;20034;-81
2023/03/31 10:51:24;;;;;;;6.55;3.90;;;;;;;;;;4944104;29;20012;-80
2023/03/31 10:53:51;;;;;;;7.38;3.50;;;;;;;;;;4924917;29;20054;-80
2023/03/31 10:56:17;;;;;;;7.18;3.55;;;;;;;;;;4923306;29;20039;-84
2023/03/31 10:58:49;;;;;;;8.15;3.72;;;;;;;;;;4914107;29;20067;-83
2023/03/31 11:01:19;;;;;;;6.97;3.60;;;;;;;;;;4943654;29;20028;-80
2023/03/31 11:03:57;;;;;;;6.15;3.53;;;;;;;;;;4939664;29;20039;-79
2023/03/31 11:09:06;;;;;;;4.82;3.55;;;;;;;;;;4928475;29;20052;-79
2023/03/31 11:11:48;;;;;;;10.07;4.55;;;;;;;;;;4912550;29;20028;-79
2023/03/31 11:14:26;;;;;;;9.77;5.25;;;;;;;;;;4925963;29;20032;-84
2023/03/31 11:16:57;;;;;;;11.07;6.18;;;;;;;;;;4926841;29;20016;-84
2023/03/31 11:19:42;;;;;;;6.20;4.25;;;;;;;;;;4906322;29;20020;-86
2023/03/31 11:22:27;;;;;;;6.63;4.18;;;;;;;;;;4925959;29;20020;-87
2023/03/31 11:24:53;;;;;;;6.18;4.20;;;;;;;;;;4912719;29;20019;-89
2023/03/31 11:27:27;;;;;;;5.57;3.25;;;;;;;;;;4929072;29;20019;-79
2023/03/31 11:30:08;;;;;;;6.18;3.13;;;;;;;;;;4932195;29;20016;-79
2023/03/31 11:32:49;;;;;;;8.93;3.10;;;;;;;;;;4918895;29;20084;-79
2023/03/31 11:35:21;;;;;;;4.05;3.20;;;;;;;;;;4933833;29;20024;-79
2023/03/31 11:37:51;;;;;;;6.60;4.00;;;;;;;;;;5083611;23;20083;-81
2023/03/31 11:40:20;;;;;;;7.35;4.22;;;;;;;;;;4953542;29;20004;-79
2023/03/31 11:42:58;;;;;;;7.90;3.90;;;;;;;;;;4937795;29;20189;-79
2023/03/31 11:48:03;;;;;;;9.60;4.28;;;;;;;;;;5544439;23;20043;-82
2023/03/31 11:53:16;;;;;;;7.32;3.90;;;;;;;;;;5088312;23;20171;-79
2023/03/31 11:55:43;;;;;;;13.07;7.47;;;;;;;;;;4930974;29;20071;-87
2023/03/31 11:58:14;;;;;;;10.63;5.45;;;;;;;;;;4930129;29;20091;-80
2023/03/31 12:00:44;;;;;;;11.98;4.82;;;;;;;;;;5062031;23;20060;-80
2023/03/31 12:03:10;;;;;;;9.65;4.68;;;;;;;;;;4931749;29;20012;-81
2023/03/31 12:05:47;;;;;;;13.73;5.47;;;;;;;;;;5062469;23;20056;-79
2023/03/31 12:08:25;;;;;;;6.30;3.97;;;;;;;;;;4930856;29;20055;-83
2023/03/31 12:10:54;;;;;;;7.90;4.25;;;;;;;;;;5234984;23;20115;-83
2023/03/31 12:13:27;;;;;;;9.18;4.70;;;;;;;;;;4915577;29;20024;-80
2023/03/31 12:16:08;;;;;;;9.98;4.57;;;;;;;;;;5002092;23;20059;-84
2023/03/31 12:18:55;;;;;;;11.30;4.38;;;;;;;;;;4945355;29;20219;-82
2023/03/31 12:21:23;;;;;;;8.25;4.13;;;;;;;;;;4931185;29;20039;-81
2023/03/31 12:23:50;;;;;;;8.30;4.00;;;;;;;;;;4929485;29;20020;-83
2023/03/31 12:26:29;;;;;;;8.98;4.40;;;;;;;;;;4931209;29;20035;-80
2023/03/31 12:28:58;;;;;;;10.80;5.75;;;;;;;;;;4929194;29;20027;-80
2023/03/31 12:31:26;;;;;;;6.63;4.05;;;;;;;;;;4927861;29;20043;-80
2023/03/31 12:34:06;;;;;;;7.32;4.60;;;;;;;;;;4928251;29;20031;-81
2023/03/31 12:36:35;;;;;;;6.78;4.40;;;;;;;;;;4939803;29;20069;-84
2023/03/31 12:39:13;;;;;;;11.85;5.13;;;;;;;;;;4944795;29;20075;-82
2023/03/31 12:41:42;;;;;;;5.82;4.03;;;;;;;;;;4943109;29;20140;-80
2023/03/31 12:44:24;;;;;;;8.15;4.32;;;;;;;;;;4927422;29;20032;-81
2023/03/31 12:46:53;;;;;;;6.50;3.85;;;;;;;;;;4923018;29;20042;-80
2023/03/31 12:49:46;;;;;;;7.43;3.70;;;;;;;;;;4925020;29;20035;-81
2023/03/31 12:52:31;;;;;;;7.65;3.83;;;;;;;;;;4910256;29;20043;-85
2023/03/31 12:55:03;;;;;;;3.20;2.55;;;;;;;;;;4940477;29;20385;-81
2023/03/31 12:57:29;;;;;;;6.22;2.95;;;;;;;;;;4945168;29;21636;-89
2023/03/31 13:00:11;;;;;;;4.25;3.10;;;;;;;;;;4926085;29;20056;-85
2023/03/31 13:02:38;;;;;;;5.15;3.30;;;;;;;;;;4926785;29;20441;-83
2023/03/31 13:05:24;;;;;;;3.80;3.20;;;;;;;;;;4941613;29;20798;-87
2023/03/31 13:07:52;;;;;;;8.32;4.38;;;;;;;;;;4936738;29;20137;-86
2023/03/31 13:10:20;;;;;;;5.70;4.85;;;;;;;;;;4938008;29;20102;-87
2023/03/31 13:13:01;;;;;;;5.85;3.40;;;;;;;;;;4934750;29;20028;-82
2023/03/31 13:15:29;;;;;;;4.32;3.22;;;;;;;;;;4921486;29;20048;-88
2023/03/31 13:17:59;;;;;;;3.92;3.15;;;;;;;;;;4919864;29;20046;-85
2023/03/31 13:20:45;;;;;;;5.07;2.65;;;;;;;;;;4937063;29;20826;-85
2023/03/31 13:23:11;;;;;;;3.35;2.67;;;;;;;;;;4923888;29;20039;-86
2023/03/31 13:25:37;;;;;;;3.30;2.83;;;;;;;;;;4940908;29;20012;-87
2023/03/31 13:28:12;;;;;;;5.13;2.67;;;;;;;;;;4922805;29;20034;-81
2023/03/31 13:30:40;;;;;;;;;;;;;;;;;;4925372;29;20031;-85
2023/03/31 13:33:09;;;;;;;3.08;2.42;;;;;;;;;;4920904;29;19923;-84
2023/03/31 13:35:36;;;;;;;4.75;2.90;;;;;;;;;;4923813;29;20040;-85
2023/03/31 13:38:09;;;;;;;4.95;2.72;;;;;;;;;;4918365;29;20090;-83
2023/03/31 13:40:55;;;;;;;6.40;3.10;;;;;;;;;;4939588;29;20091;-87
2023/03/31 13:43:38;;;;;;;2.63;2.25;;;;;;;;;;4926332;29;20050;-89
2023/03/31 13:46:15;;;;;;;2.95;2.10;;;;;;;;;;4942651;29;20028;-86
2023/03/31 13:49:00;;;;;;;4.10;3.42;;;;;;;;;;4927473;29;20055;-85
2023/03/31 13:51:50;;;;;;;2.72;2.28;;;;;;;;;;4943888;29;20043;-85
2023/03/31 13:54:35;;;;;;;2.70;2.30;;;;;;;;;;4941906;29;20043;-83
2023/03/31 13:57:20;;;;;;;3.58;2.35;;;;;;;;;;4925748;29;20043;-86
2023/03/31 13:59:46;;;;;;;2.58;2.10;;;;;;;;;;4941788;29;20218;-87
2023/03/31 14:02:31;;;;;;;3.60;2.40;;;;;;;;;;4926494;29;20056;-87
2023/03/31 14:05:16;;;;;;;3.70;2.92;;;;;;;;;;4926511;29;20032;-83
2023/03/31 14:07:59;;;;;;;2.40;2.20;;;;;;;;;;4941434;29;20099;-82
2023/03/31 14:10:28;;;;;;;3.40;2.20;;;;;;;;;;4943714;29;20024;-85
2023/03/31 14:13:09;;;;;;;3.00;2.42;;;;;;;;;;4927524;29;20039;-83
2023/03/31 14:15:42;;;;;;;2.70;2.30;;;;;;;;;;4928322;29;20161;-88
2023/03/31 14:18:10;;;;;;;3.05;2.35;;;;;;;;;;4923891;29;20091;-82
2023/03/31 14:20:44;;;;;;;2.88;2.58;;;;;;;;;;4927339;29;20028;-81
2023/03/31 14:23:16;;;;;;;3.47;2.38;;;;;;;;;;4925838;29;20031;-83
2023/03/31 14:25:46;;;;;;;3.72;2.50;;;;;;;;;;4928208;29;20035;-90
2023/03/31 14:28:12;;;;;;;3.13;2.40;;;;;;;;;;4926125;29;20341;-86
2023/03/31 14:31:05;;;;;;;1.77;1.67;;;;;;;;;;4925204;29;20489;-85
2023/03/31 14:33:43;;;;;;;2.85;1.90;;;;;;;;;;4918415;29;20497;-83
2023/03/31 14:36:20;;;;;;;2.92;2.42;;;;;;;;;;4922887;29;20210;-84
2023/03/31 14:38:46;;;;;;;4.25;2.40;;;;;;;;;;4920157;29;20046;-87
2023/03/31 14:41:19;;;;;;;4.75;3.55;;;;;;;;;;4927243;29;20392;-90
2023/03/31 14:43:48;;;;;;;3.10;2.78;;;;;;;;;;4925421;29;20054;-84
2023/03/31 14:46:18;;;;;;;2.22;2.03;;;;;;;;;;4947431;29;20031;-83
2023/03/31 14:48:46;;;;;;;1.95;1.75;;;;;;;;;;4931538;29;20032;-85
2023/03/31 14:51:14;;;;;;;2.55;2.35;;;;;;;;;;4928526;29;20016;-87
2023/03/31 14:53:42;;;;;;;2.38;1.80;;;;;;;;;;4944511;29;20046;-86
2023/03/31 14:56:21;;;;;;;2.15;1.95;;;;;;;;;;4927999;29;20043;-92
2023/03/31 14:58:50;;;;;;;3.05;1.95;;;;;;;;;;4926328;29;20016;-90
2023/03/31 15:01:34;;;;;;;2.50;1.90;;;;;;;;;;4942815;29;20020;-84
2023/03/31 15:04:02;;;;;;;2.55;1.98;;;;;;;;;;4940862;29;20035;-83
2023/03/31 15:06:31;;;;;;;2.88;2.00;;;;;;;;;;4943128;29;20055;-86
2023/03/31 15:09:01;;;;;;;2.00;1.80;;;;;;;;;;4927421;29;20079;-91
2023/03/31 15:11:27;;;;;;;2.30;2.08;;;;;;;;;;4915360;29;20051;-91
2023/03/31 15:13:54;;;;;;;2.97;2.10;;;;;;;;;;4924053;29;20035;-86
2023/03/31 15:16:30;;;;;;;2.10;1.90;;;;;;;;;;4944356;29;20067;-91
2023/03/31 15:18:56;;;;;;;;;;;;;;;;;;4925670;29;20113;-84
2023/03/31 15:21:23;;;;;;;2.60;2.20;;;;;;;;;;4938900;29;19942;-87
2023/03/31 15:23:55;;;;;;;4.30;3.42;;;;;;;;;;4939414;29;20059;-84
2023/03/31 15:26:25;;;;;;;6.25;4.05;;;;;;;;;;4919731;29;20036;-86
2023/03/31 15:28:57;;;;;;;5.25;3.90;;;;;;;;;;4935240;29;20023;-92
2023/03/31 15:31:25;;;;;;;4.10;2.75;;;;;;;;;;4925814;29;20024;-92
2023/03/31 15:33:52;;;;;;;6.55;4.45;;;;;;;;;;4939524;29;20028;-90
2023/03/31 15:36:22;;;;;;;5.13;3.55;;;;;;;;;;4927831;29;20031;-92
2023/03/31 15:38:54;;;;;;;5.50;3.70;;;;;;;;;;4916388;29;20051;-91
2023/03/31 15:41:21;;;;;;;7.63;3.80;;;;;;;;;;4941717;29;20019;-89
2023/03/31 15:44:03;;;;;;;4.00;2.97;;;;;;;;;;4909972;29;20064;-90
2023/03/31 15:46:50;;;;;;;2.88;2.55;;;;;;;;;;4939309;29;20051;-90
2023/03/31 15:49:23;;;;;;;5.47;3.97;;;;;;;;;;4927608;29;20075;-90
2023/03/31 15:51:52;;;;;;;5.35;4.00;;;;;;;;;;4915108;29;20115;-91
2023/03/31 15:54:38;;;;;;;11.02;6.88;;;;;;;;;;4925950;29;20028;-94
2023/03/31 15:57:05;;;;;;;7.07;3.33;;;;;;;;;;4931458;29;20043;-91
2023/03/31 15:59:56;;;;;;;5.78;2.80;;;;;;;;;;4945759;29;20032;-89
2023/03/31 16:02:27;;;;;;;6.65;2.88;;;;;;;;;;4932155;29;20037;-91
2023/03/31 16:04:55;;;;;;;4.47;2.67;;;;;;;;;;4923112;29;20032;-87
2023/03/31 16:07:33;;;;;;;4.03;2.40;;;;;;;;;;4932712;29;20031;-93
2023/03/31 16:10:05;;;;;;;4.60;2.97;;;;;;;;;;4935690;29;20131;-90
2023/03/31 16:12:31;;;;;;;5.07;2.92;;;;;;;;;;4926458;29;20036;-86
2023/03/31 16:15:19;;;;;;;3.60;2.50;;;;;;;;;;4931735;29;20047;-88
2023/03/31 16:17:59;;;;;;;4.28;3.10;;;;;;;;;;4938639;29;20036;-94
2023/03/31 16:20:35;;;;;;;6.10;3.53;;;;;;;;;;4937575;29;20031;-90
2023/03/31 16:26:10;;;;;;;8.40;4.65;;;;;;;;;;4949760;29;20062;-93
2023/03/31 16:31:39;;;;;;;7.32;4.22;;;;;;;;;;5093052;23;20060;-81
2023/03/31 16:34:10;;;;;;;15.00;5.78;;;;;;;;;;4913190;29;20036;-83
2023/03/31 16:36:36;;;;;;;6.65;4.70;;;;;;;;;;4906992;29;20024;-82
2023/03/31 16:39:04;;;;;;;9.63;5.57;;;;;;;;;;4919232;29;20024;-81
2023/03/31 16:41:34;;;;;;;6.80;5.07;;;;;;;;;;4934799;29;20051;-82
2023/03/31 16:44:00;;;;;;;7.10;4.85;;;;;;;;;;4919356;29;20031;-81
2023/03/31 16:46:27;;;;;;;9.88;4.07;;;;;;;;;;4937551;29;20039;-83
2023/03/31 16:48:58;;;;;;;8.38;5.22;;;;;;;;;;4908318;29;20052;-81
2023/03/31 16:51:29;;;;;;;9.73;6.30;;;;;;;;;;4925217;29;20021;-83
2023/03/31 16:54:04;;;;;;;28.13;15.48;;;;;;;;;;4914078;29;20039;-85
2023/03/31 16:56:33;;;;;;;17.15;10.55;;;;;;;;;;4934649;29;20040;-82
2023/03/31 16:59:00;;;;;;;10.73;6.50;;;;;;;;;;4935282;29;20032;-88
2023/03/31 17:01:26;;;;;;;10.70;5.97;;;;;;;;;;4923994;29;20036;-85
2023/03/31 17:03:54;;;;;;;10.48;6.65;;;;;;;;;;4940269;29;20085;-84
2023/03/31 17:06:23;;;;;;;25.52;12.88;;;;;;;;;;4925193;29;20032;-85
2023/03/31 17:08:58;;;;;;;12.68;8.73;;;;;;;;;;4924564;29;20023;-84
2023/03/31 17:11:25;;;;;;;7.18;5.60;;;;;;;;;;4940983;29;20034;-86
2023/03/31 17:13:58;;;;;;;15.15;8.93;;;;;;;;;;4915437;29;20028;-87
2023/03/31 17:16:25;;;;;;;6.32;3.47;;;;;;;;;;4914830;29;20043;-86
2023/03/31 17:18:51;;;;;;;16.45;7.97;;;;;;;;;;4925145;29;20026;-88
2023/03/31 17:21:18;;;;;;;11.90;6.68;;;;;;;;;;4937053;29;20070;-85
2023/03/31 17:23:48;;;;;;;7.75;4.07;;;;;;;;;;4926910;29;20092;-88
2023/03/31 17:26:26;;;;;;;15.23;7.90;;;;;;;;;;4924283;29;20016;-87
2023/03/31 17:28:52;;;;;;;6.57;3.80;;;;;;;;;;4915649;29;20128;-87
2023/03/31 17:31:23;;;;;;;5.55;4.07;;;;;;;;;;4930218;29;20070;-88
2023/03/31 17:33:49;;;;;;;10.95;5.35;;;;;;;;;;4973537;23;20088;-81
2023/03/31 17:36:21;;;;;;;7.00;3.53;;;;;;;;;;5219979;23;20066;-86
2023/03/31 17:39:01;;;;;;;6.60;3.67;;;;;;;;;;5312821;23;20024;-87
2023/03/31 17:41:28;;;;;;;10.93;6.13;;;;;;;;;;4926865;29;20064;-84
2023/03/31 17:43:55;;;;;;;13.57;6.57;;;;;;;;;;4925058;29;20028;-82
2023/03/31 17:46:22;;;;;;;9.02;4.80;;;;;;;;;;4929929;29;20026;-84
2023/03/31 17:48:48;;;;;;;6.35;3.75;;;;;;;;;;4948140;29;20042;-83
2023/03/31 17:51:15;;;;;;;8.65;5.00;;;;;;;;;;4928958;29;20046;-82
2023/03/31 17:53:43;;;;;;;10.65;6.03;;;;;;;;;;4928845;29;20063;-82
2023/03/31 17:56:10;;;;;;;5.97;3.83;;;;;;;;;;4929871;29;20016;-85
2023/03/31 17:58:36;;;;;;;5.57;3.67;;;;;;;;;;4939335;29;20055;-83
2023/03/31 18:01:06;;;;;;;4.40;3.33;;;;;;;;;;4955854;29;20024;-84
2023/03/31 18:03:33;;;;;;;3.40;2.80;;;;;;;;;;4940235;29;20123;-85
2023/03/31 18:06:03;;;;;;;5.70;2.90;;;;;;;;;;4951380;29;20092;-83
2023/03/31 18:11:07;;;;;;;6.30;3.85;;;;;;;;;;5418788;23;20104;-83
2023/03/31 18:13:35;;;;;;;5.10;2.97;;;;;;;;;;4936095;29;20013;-83
2023/03/31 18:16:01;;;;;;;5.07;3.08;;;;;;;;;;4929989;29;20046;-85
2023/03/31 18:18:27;;;;;;;4.20;3.42;;;;;;;;;;4923517;29;20020;-83
2023/03/31 18:33:53;;;;;;;5.78;4.13;;;;;;;;;;5884380;23;20882;-83
2023/03/31 18:36:20;;;;;;;16.13;8.05;;;;;;;;;;5129188;23;20027;-82
2023/03/31 18:38:47;;;;;;;9.07;4.10;;;;;;;;;;4943698;29;20079;-83
2023/03/31 18:41:14;;;;;;;6.80;4.15;;;;;;;;;;4940399;29;20170;-85
2023/03/31 18:43:44;;;;;;;5.85;4.30;;;;;;;;;;4956677;29;20055;-84
2023/03/31 18:46:15;;;;;;;7.18;5.53;;;;;;;;;;5011822;23;20079;-84
2023/03/31 18:51:17;;;;;;;6.75;4.20;;;;;;;;;;5732289;23;20051;-85
2023/03/31 18:53:50;;;;;;;10.73;6.28;;;;;;;;;;4960859;23;20059;-85
2023/03/31 18:56:23;;;;;;;12.88;5.65;;;;;;;;;;5196911;23;20046;-84
2023/03/31 18:58:50;;;;;;;7.47;4.68;;;;;;;;;;4930105;29;20016;-87
2023/03/31 19:09:04;;;;;;;10.63;5.35;;;;;;;;;;5259776;23;20040;-84
2023/03/31 19:11:31;;;;;;;5.47;3.58;;;;;;;;;;4939520;29;20029;-84
2023/03/31 19:14:19;;;;;;;6.78;4.22;;;;;;;;;;4926255;29;20039;-85
2023/03/31 19:19:22;;;;;;;6.57;3.95;;;;;;;;;;5841636;23;20048;-83
2023/03/31 19:21:48;;;;;;;5.55;3.60;;;;;;;;;;4938058;29;20020;-83
2023/03/31 19:24:17;;;;;;;6.70;4.40;;;;;;;;;;4933688;29;20105;-84
2023/03/31 19:26:43;;;;;;;8.07;5.32;;;;;;;;;;4932209;29;20024;-82
2023/03/31 19:29:09;;;;;;;10.02;4.90;;;;;;;;;;4929330;29;20030;-84
2023/03/31 19:31:40;;;;;;;5.60;3.47;;;;;;;;;;4923297;29;20028;-81
2023/03/31 19:34:07;;;;;;;3.72;3.08;;;;;;;;;;4937056;29;20032;-84
2023/03/31 19:39:10;;;;;;;7.65;4.18;;;;;;;;;;5466069;23;20040;-84
2023/03/31 19:41:36;;;;;;;6.72;4.38;;;;;;;;;;4939997;29;20013;-83
2023/03/31 19:44:02;;;;;;;6.07;4.13;;;;;;;;;;4938742;29;20032;-84
2023/03/31 19:46:29;;;;;;;5.07;3.08;;;;;;;;;;4941073;29;20033;-84
2023/03/31 19:48:55;;;;;;;5.05;3.13;;;;;;;;;;4936995;29;20273;-83
2023/03/31 20:19:56;;;;;;;5.15;3.75;;;;;;;;;;5500335;23;20076;-84
2023/03/31 20:35:38;;;;;;;5.63;4.28;;;;;;;;;;5593593;23;20046;-88
2023/03/31 21:16:03;;;;;;;25.33;14.07;;;;;;;;;;5501872;23;20068;-86
2023/03/31 21:18:32;;;;;;;5.95;4.53;;;;;;;;;;4939039;29;20040;-88
2023/03/31 21:21:00;;;;;;;8.95;6.53;;;;;;;;;;4940938;29;20016;-87
2023/03/31 21:23:27;;;;;;;9.20;6.65;;;;;;;;;;4925361;29;20024;-85
2023/03/31 21:25:55;;;;;;;6.18;4.70;;;;;;;;;;4931526;29;20029;-87
2023/03/31 21:28:24;;;;;;;5.07;4.57;;;;;;;;;;4921692;29;20032;-89
2023/03/31 21:31:17;;;;;;;4.85;3.80;;;;;;;;;;4925269;29;20024;-87
2023/03/31 21:36:21;;;;;;;6.72;4.25;;;;;;;;;;5507992;23;20103;-82
2023/03/31 21:38:48;;;;;;;4.70;3.92;;;;;;;;;;4927606;29;20015;-82
2023/03/31 21:41:19;;;;;;;8.30;5.65;;;;;;;;;;4922796;29;20086;-82
2023/03/31 21:43:45;;;;;;;7.30;4.25;;;;;;;;;;4925209;29;20032;-82
2023/03/31 21:46:31;;;;;;;5.97;3.78;;;;;;;;;;4932533;29;20051;-84
2023/03/31 21:48:57;;;;;;;9.48;4.45;;;;;;;;;;4924611;29;20034;-83
2023/03/31 21:51:24;;;;;;;6.53;4.90;;;;;;;;;;4931162;29;20036;-82
2023/03/31 21:53:53;;;;;;;4.13;3.63;;;;;;;;;;4927891;29;20043;-83
2023/03/31 21:56:27;;;;;;;4.40;3.63;;;;;;;;;;5283746;23;20028;-88
2023/03/31 21:58:53;;;;;;;5.47;3.75;;;;;;;;;;4931709;29;20020;-87
2023/03/31 22:01:20;;;;;;;6.90;3.83;;;;;;;;;;4937652;29;20016;-86
2023/03/31 22:03:47;;;;;;;4.95;3.90;;;;;;;;;;4942658;29;20028;-85
2023/03/31 22:06:13;;;;;;;6.38;4.15;;;;;;;;;;4933628;29;20041;-84
2023/03/31 22:08:47;;;;;;;5.25;4.10;;;;;;;;;;4931472;29;20017;-84
2023/03/31 22:11:21;;;;;;;7.80;5.60;;;;;;;;;;4931182;29;20016;-83
2023/03/31 22:13:47;;;;;;;7.07;4.88;;;;;;;;;;4930035;29;20015;-81
2023/03/31 22:16:20;;;;;;;4.88;3.80;;;;;;;;;;4933606;29;20015;-81
2023/03/31 22:18:54;;;;;;;4.82;4.15;;;;;;;;;;4940330;29;20004;-82
2023/03/31 22:21:22;;;;;;;5.20;4.13;;;;;;;;;;4939272;29;20052;-82
2023/03/31 22:23:50;;;;;;;9.80;4.97;;;;;;;;;;4936406;29;20040;-87
2023/03/31 22:26:20;;;;;;;7.80;4.72;;;;;;;;;;4940728;29;20039;-85
2023/03/31 22:28:46;;;;;;;6.80;4.85;;;;;;;;;;4925074;29;20021;-85
2023/03/31 22:31:15;;;;;;;7.80;5.18;;;;;;;;;;4938712;29;20042;-84
2023/03/31 22:33:41;;;;;;;6.68;4.50;;;;;;;;;;4936459;29;20087;-84
2023/03/31 22:36:08;;;;;;;6.32;4.88;;;;;;;;;;4939826;29;20039;-85
2023/03/31 22:38:34;;;;;;;4.78;4.38;;;;;;;;;;4926336;29;20017;-85
2023/03/31 22:41:00;;;;;;;6.05;5.15;;;;;;;;;;4938548;29;20027;-86
2023/03/31 22:43:27;;;;;;;5.50;4.63;;;;;;;;;;4942749;29;20092;-84
2023/03/31 22:45:54;;;;;;;4.93;4.50;;;;;;;;;;4937841;29;20107;-81
2023/03/31 22:48:20;;;;;;;5.47;4.13;;;;;;;;;;4943617;29;20072;-85
2023/03/31 22:50:46;;;;;;;4.75;3.83;;;;;;;;;;4935968;29;20020;-82
2023/03/31 22:53:12;;;;;;;5.65;3.88;;;;;;;;;;4932022;29;20062;-87
2023/03/31 22:55:43;;;;;;;4.90;4.05;;;;;;;;;;4923728;29;20180;-85
2023/03/31 22:58:09;;;;;;;4.40;3.58;;;;;;;;;;4924941;29;20055;-85
2023/03/31 23:00:36;;;;;;;5.40;4.22;;;;;;;;;;5012557;23;20035;-86
2023/03/31 23:03:02;;;;;;;4.15;3.40;;;;;;;;;;4945474;29;20020;-85
2023/03/31 23:05:28;;;;;;;4.03;3.55;;;;;;;;;;4945712;29;20036;-85
2023/03/31 23:07:57;;;;;;;5.60;3.88;;;;;;;;;;4944852;29;20031;-84
2023/03/31 23:10:23;;;;;;;4.88;3.80;;;;;;;;;;4940749;29;20083;-86
2023/03/31 23:12:50;;;;;;;6.93;5.18;;;;;;;;;;4960372;29;20032;-83
2023/03/31 23:25:39;;;;;;;5.30;4.03;;;;;;;;;;5261211;23;20055;-85
2023/03/31 23:28:06;;;;;;;4.53;3.30;;;;;;;;;;4938862;29;20079;-85
2023/03/31 23:30:32;;;;;;;4.28;3.70;;;;;;;;;;4942515;29;20064;-84
2023/03/31 23:32:58;;;;;;;4.40;3.85;;;;;;;;;;4940585;29;20044;-82
2023/03/31 23:35:29;;;;;;;4.38;3.72;;;;;;;;;;4934720;29;20035;-82
2023/03/31 23:37:58;;;;;;;6.18;4.22;;;;;;;;;;4934414;29;20064;-84
2023/03/31 23:40:24;;;;;;;5.10;4.00;;;;;;;;;;4940874;29;20019;-83
2023/03/31 23:42:50;;;;;;;4.65;4.10;;;;;;;;;;4934573;29;20104;-85
2023/03/31 23:45:19;;;;;;;4.88;3.78;;;;;;;;;;4924507;29;20040;-86
2023/03/31 23:47:52;;;;;;;4.60;4.07;;;;;;;;;;4937471;29;20080;-84
2023/03/31 23:50:20;;;;;;;4.43;3.70;;;;;;;;;;4930878;29;20043;-82
2023/03/31 23:52:54;;;;;;;4.53;3.47;;;;;;;;;;4932535;29;20032;-83
2023/03/31 23:55:27;;;;;;;5.03;3.90;;;;;;;;;;4934371;29;20031;-84
2023/03/31 23:57:57;;;;;;;4.20;3.50;;;;;;;;;;4930790;29;20052;-82
